sensor_id;sensor_type;location;lat;lon;timestamp;pressure;altitude;pressure_sealevel;temperature
51149;BMP280;37210;50.058;8.688;2023-07-29T00:02:17;99614.94;;;21.40
51149;BMP280;37210;50.058;8.688;2023-07-29T00:04:44;99616.88;;;21.54
51149;BMP280;37210;50.058;8.688;2023-07-29T00:07:13;99514.91;;;20.88
51149;BMP280;37210;50.058;8.688;2023-07-29T00:09:41;99603.91;;;21.48
51149;BMP280;37210;50.058;8.688;2023-07-29T00:12:08;99600.91;;;21.54
51149;BMP280;37210;50.058;8.688;2023-07-29T00:14:36;99598.38;;;21.51
51149;BMP280;37210;50.058;8.688;2023-07-29T00:17:03;99544.47;;;21.32
51149;BMP280;37210;50.058;8.688;2023-07-29T00:19:31;99597.13;;;21.58
51149;BMP280;37210;50.058;8.688;2023-07-29T00:21:59;99545.34;;;21.32
51149;BMP280;37210;50.058;8.688;2023-07-29T00:24:28;99593.63;;;21.73
51149;BMP280;37210;50.058;8.688;2023-07-29T00:26:55;99574.47;;;21.67
51149;BMP280;37210;50.058;8.688;2023-07-29T00:29:23;99571.31;;;21.76
51149;BMP280;37210;50.058;8.688;2023-07-29T00:31:51;99589.44;;;21.85
51149;BMP280;37210;50.058;8.688;2023-07-29T00:34:20;99580.75;;;21.81
51149;BMP280;37210;50.058;8.688;2023-07-29T00:36:47;99581.84;;;21.77
51149;BMP280;37210;50.058;8.688;2023-07-29T00:39:15;99564.59;;;21.84
51149;BMP280;37210;50.058;8.688;2023-07-29T00:41:43;99567.88;;;21.89
51149;BMP280;37210;50.058;8.688;2023-07-29T00:44:11;99490.19;;;21.36
51149;BMP280;37210;50.058;8.688;2023-07-29T00:46:40;99506.91;;;21.54
51149;BMP280;37210;50.058;8.688;2023-07-29T00:49:08;99501.06;;;21.31
51149;BMP280;37210;50.058;8.688;2023-07-29T00:51:36;99550.00;;;21.76
51149;BMP280;37210;50.058;8.688;2023-07-29T00:54:03;99541.72;;;21.80
51149;BMP280;37210;50.058;8.688;2023-07-29T00:56:31;99512.66;;;21.46
51149;BMP280;37210;50.058;8.688;2023-07-29T00:59:01;99546.06;;;21.67
51149;BMP280;37210;50.058;8.688;2023-07-29T01:01:28;99476.25;;;21.31
51149;BMP280;37210;50.058;8.688;2023-07-29T01:03:56;99550.16;;;21.73
51149;BMP280;37210;50.058;8.688;2023-07-29T01:06:29;99551.09;;;21.72
51149;BMP280;37210;50.058;8.688;2023-07-29T01:09:09;99551.63;;;21.78
51149;BMP280;37210;50.058;8.688;2023-07-29T01:11:51;99550.25;;;21.71
51149;BMP280;37210;50.058;8.688;2023-07-29T01:14:29;99507.50;;;21.59
51149;BMP280;37210;50.058;8.688;2023-07-29T01:17:08;99536.00;;;21.72
51149;BMP280;37210;50.058;8.688;2023-07-29T01:19:43;99522.25;;;21.64
51149;BMP280;37210;50.058;8.688;2023-07-29T01:22:23;99518.06;;;21.60
51149;BMP280;37210;50.058;8.688;2023-07-29T01:24:52;99543.28;;;21.53
51149;BMP280;37210;50.058;8.688;2023-07-29T01:27:20;99522.34;;;21.47
51149;BMP280;37210;50.058;8.688;2023-07-29T01:29:47;99531.63;;;21.71
51149;BMP280;37210;50.058;8.688;2023-07-29T01:32:19;99525.59;;;21.68
51149;BMP280;37210;50.058;8.688;2023-07-29T01:35:10;99533.31;;;21.72
51149;BMP280;37210;50.058;8.688;2023-07-29T01:37:50;99516.31;;;21.59
51149;BMP280;37210;50.058;8.688;2023-07-29T01:40:26;99492.50;;;21.42
51149;BMP280;37210;50.058;8.688;2023-07-29T01:42:56;99518.06;;;21.60
51149;BMP280;37210;50.058;8.688;2023-07-29T01:45:25;99518.47;;;21.68
51149;BMP280;37210;50.058;8.688;2023-07-29T01:47:53;99547.50;;;21.73
51149;BMP280;37210;50.058;8.688;2023-07-29T01:50:21;99533.06;;;21.77
51149;BMP280;37210;50.058;8.688;2023-07-29T01:52:49;99444.94;;;21.05
51149;BMP280;37210;50.058;8.688;2023-07-29T01:55:16;99450.53;;;20.99
51149;BMP280;37210;50.058;8.688;2023-07-29T01:57:45;99500.88;;;21.19
51149;BMP280;37210;50.058;8.688;2023-07-29T02:00:14;99503.34;;;21.22
51149;BMP280;37210;50.058;8.688;2023-07-29T02:02:45;99515.06;;;21.51
51149;BMP280;37210;50.058;8.688;2023-07-29T02:05:13;99498.25;;;21.50
51149;BMP280;37210;50.058;8.688;2023-07-29T02:07:41;99402.41;;;21.05
51149;BMP280;37210;50.058;8.688;2023-07-29T02:10:09;99520.44;;;21.80
51149;BMP280;37210;50.058;8.688;2023-07-29T02:12:36;99511.88;;;21.75
51149;BMP280;37210;50.058;8.688;2023-07-29T02:15:07;99504.31;;;21.68
51149;BMP280;37210;50.058;8.688;2023-07-29T02:17:35;99485.59;;;21.54
51149;BMP280;37210;50.058;8.688;2023-07-29T02:20:04;99499.19;;;21.65
51149;BMP280;37210;50.058;8.688;2023-07-29T02:22:32;99433.81;;;21.29
51149;BMP280;37210;50.058;8.688;2023-07-29T02:25:00;99506.19;;;21.66
51149;BMP280;37210;50.058;8.688;2023-07-29T02:27:30;99409.06;;;21.12
51149;BMP280;37210;50.058;8.688;2023-07-29T02:29:58;99434.06;;;21.25
51149;BMP280;37210;50.058;8.688;2023-07-29T02:32:27;99501.28;;;21.74
51149;BMP280;37210;50.058;8.688;2023-07-29T02:34:55;99469.63;;;21.69
51149;BMP280;37210;50.058;8.688;2023-07-29T02:37:22;99488.34;;;21.68
51149;BMP280;37210;50.058;8.688;2023-07-29T02:39:50;99490.22;;;21.66
51149;BMP280;37210;50.058;8.688;2023-07-29T02:42:17;99433.53;;;21.18
51149;BMP280;37210;50.058;8.688;2023-07-29T02:44:44;99492.38;;;21.59
51149;BMP280;37210;50.058;8.688;2023-07-29T02:47:12;99481.81;;;21.58
51149;BMP280;37210;50.058;8.688;2023-07-29T02:49:41;99418.59;;;21.16
51149;BMP280;37210;50.058;8.688;2023-07-29T02:52:10;99513.66;;;21.59
51149;BMP280;37210;50.058;8.688;2023-07-29T02:54:37;99506.75;;;21.57
51149;BMP280;37210;50.058;8.688;2023-07-29T02:57:05;99499.09;;;21.51
51149;BMP280;37210;50.058;8.688;2023-07-29T02:59:33;99488.72;;;21.46
51149;BMP280;37210;50.058;8.688;2023-07-29T03:02:00;99490.50;;;21.45
51149;BMP280;37210;50.058;8.688;2023-07-29T03:04:27;99481.66;;;21.45
51149;BMP280;37210;50.058;8.688;2023-07-29T03:06:56;99473.88;;;21.42
51149;BMP280;37210;50.058;8.688;2023-07-29T03:09:25;99466.34;;;21.02
51149;BMP280;37210;50.058;8.688;2023-07-29T03:11:52;99498.72;;;21.10
51149;BMP280;37210;50.058;8.688;2023-07-29T03:14:20;99487.06;;;21.12
51149;BMP280;37210;50.058;8.688;2023-07-29T03:16:48;99470.78;;;21.01
51149;BMP280;37210;50.058;8.688;2023-07-29T03:19:16;99480.13;;;20.93
51149;BMP280;37210;50.058;8.688;2023-07-29T03:21:43;99474.19;;;21.05
51149;BMP280;37210;50.058;8.688;2023-07-29T03:24:13;99439.66;;;20.88
51149;BMP280;37210;50.058;8.688;2023-07-29T03:26:40;99437.16;;;20.85
51149;BMP280;37210;50.058;8.688;2023-07-29T03:29:08;99423.69;;;21.05
51149;BMP280;37210;50.058;8.688;2023-07-29T03:31:35;99458.66;;;21.28
51149;BMP280;37210;50.058;8.688;2023-07-29T03:34:02;99414.09;;;21.01
51149;BMP280;37210;50.058;8.688;2023-07-29T03:36:30;99431.00;;;21.00
51149;BMP280;37210;50.058;8.688;2023-07-29T03:38:58;99449.72;;;20.98
51149;BMP280;37210;50.058;8.688;2023-07-29T03:41:28;99442.19;;;21.06
51149;BMP280;37210;50.058;8.688;2023-07-29T03:43:55;99331.06;;;20.33
51149;BMP280;37210;50.058;8.688;2023-07-29T03:46:23;99452.19;;;21.01
51149;BMP280;37210;50.058;8.688;2023-07-29T03:48:51;99453.78;;;21.21
51149;BMP280;37210;50.058;8.688;2023-07-29T03:51:19;99456.34;;;21.22
51149;BMP280;37210;50.058;8.688;2023-07-29T03:53:47;99458.00;;;21.25
51149;BMP280;37210;50.058;8.688;2023-07-29T03:56:15;99454.56;;;21.23
51149;BMP280;37210;50.058;8.688;2023-07-29T03:58:46;99436.53;;;21.28
51149;BMP280;37210;50.058;8.688;2023-07-29T04:01:14;99439.19;;;21.12
51149;BMP280;37210;50.058;8.688;2023-07-29T04:03:41;99445.28;;;21.30
51149;BMP280;37210;50.058;8.688;2023-07-29T04:06:09;99452.06;;;21.20
51149;BMP280;37210;50.058;8.688;2023-07-29T04:08:37;99356.84;;;20.47
51149;BMP280;37210;50.058;8.688;2023-07-29T04:11:05;99460.91;;;21.20
51149;BMP280;37210;50.058;8.688;2023-07-29T04:13:32;99448.72;;;21.16
51149;BMP280;37210;50.058;8.688;2023-07-29T04:16:01;99424.81;;;20.99
51149;BMP280;37210;50.058;8.688;2023-07-29T04:18:29;99439.63;;;21.05
51149;BMP280;37210;50.058;8.688;2023-07-29T04:20:56;99443.25;;;21.19
51149;BMP280;37210;50.058;8.688;2023-07-29T04:23:24;99408.97;;;20.98
51149;BMP280;37210;50.058;8.688;2023-07-29T04:25:51;99356.47;;;20.54
51149;BMP280;37210;50.058;8.688;2023-07-29T04:28:19;99427.09;;;21.07
51149;BMP280;37210;50.058;8.688;2023-07-29T04:30:46;99451.47;;;21.15
51149;BMP280;37210;50.058;8.688;2023-07-29T04:33:15;99440.47;;;21.05
51149;BMP280;37210;50.058;8.688;2023-07-29T04:35:43;99416.63;;;21.04
51149;BMP280;37210;50.058;8.688;2023-07-29T04:38:10;99290.78;;;20.41
51149;BMP280;37210;50.058;8.688;2023-07-29T04:40:40;99421.44;;;21.13
51149;BMP280;37210;50.058;8.688;2023-07-29T04:43:08;99396.13;;;21.06
51149;BMP280;37210;50.058;8.688;2023-07-29T04:45:35;99432.25;;;21.25
51149;BMP280;37210;50.058;8.688;2023-07-29T04:48:06;99434.56;;;21.31
51149;BMP280;37210;50.058;8.688;2023-07-29T04:50:35;99427.41;;;21.32
51149;BMP280;37210;50.058;8.688;2023-07-29T04:53:03;99431.91;;;21.31
51149;BMP280;37210;50.058;8.688;2023-07-29T04:55:30;99434.72;;;21.28
51149;BMP280;37210;50.058;8.688;2023-07-29T04:57:58;99441.25;;;21.38
51149;BMP280;37210;50.058;8.688;2023-07-29T05:00:26;99433.19;;;21.40
51149;BMP280;37210;50.058;8.688;2023-07-29T05:02:53;99374.09;;;21.04
51149;BMP280;37210;50.058;8.688;2023-07-29T05:05:21;99436.88;;;21.37
51149;BMP280;37210;50.058;8.688;2023-07-29T05:07:51;99432.50;;;21.36
51149;BMP280;37210;50.058;8.688;2023-07-29T05:10:18;99424.09;;;21.44
51149;BMP280;37210;50.058;8.688;2023-07-29T05:12:46;99371.69;;;21.15
51149;BMP280;37210;50.058;8.688;2023-07-29T05:15:14;99446.22;;;21.60
51149;BMP280;37210;50.058;8.688;2023-07-29T05:17:42;99428.50;;;21.59
51149;BMP280;37210;50.058;8.688;2023-07-29T05:20:10;99314.03;;;20.84
51149;BMP280;37210;50.058;8.688;2023-07-29T05:22:37;99428.09;;;21.67
51149;BMP280;37210;50.058;8.688;2023-07-29T05:25:07;99408.78;;;21.63
51149;BMP280;37210;50.058;8.688;2023-07-29T05:27:38;99432.59;;;21.80
51149;BMP280;37210;50.058;8.688;2023-07-29T05:30:07;99395.69;;;21.74
51149;BMP280;37210;50.058;8.688;2023-07-29T05:32:35;99418.78;;;21.89
51149;BMP280;37210;50.058;8.688;2023-07-29T05:35:02;99433.09;;;22.02
51149;BMP280;37210;50.058;8.688;2023-07-29T05:37:31;99440.81;;;22.07
51149;BMP280;37210;50.058;8.688;2023-07-29T05:39:59;99442.34;;;22.11
51149;BMP280;37210;50.058;8.688;2023-07-29T05:42:28;99455.69;;;21.95
51149;BMP280;37210;50.058;8.688;2023-07-29T05:44:55;99401.56;;;21.65
51149;BMP280;37210;50.058;8.688;2023-07-29T05:47:23;99454.00;;;21.94
51149;BMP280;37210;50.058;8.688;2023-07-29T05:49:50;99447.44;;;22.00
51149;BMP280;37210;50.058;8.688;2023-07-29T05:52:18;99455.03;;;22.21
51149;BMP280;37210;50.058;8.688;2023-07-29T05:54:45;99436.16;;;22.10
51149;BMP280;37210;50.058;8.688;2023-07-29T05:57:13;99454.44;;;22.31
51149;BMP280;37210;50.058;8.688;2023-07-29T05:59:42;99464.19;;;22.32
51149;BMP280;37210;50.058;8.688;2023-07-29T06:02:09;99466.38;;;22.39
51149;BMP280;37210;50.058;8.688;2023-07-29T06:04:36;99464.56;;;22.40
51149;BMP280;37210;50.058;8.688;2023-07-29T06:07:05;99464.66;;;22.38
51149;BMP280;37210;50.058;8.688;2023-07-29T06:09:32;99471.78;;;22.38
51149;BMP280;37210;50.058;8.688;2023-07-29T06:12:00;99468.22;;;22.53
51149;BMP280;37210;50.058;8.688;2023-07-29T06:14:27;99468.66;;;22.45
51149;BMP280;37210;50.058;8.688;2023-07-29T06:16:56;99462.13;;;22.51
51149;BMP280;37210;50.058;8.688;2023-07-29T06:19:23;99458.50;;;22.52
51149;BMP280;37210;50.058;8.688;2023-07-29T06:21:51;99457.88;;;22.33
51149;BMP280;37210;50.058;8.688;2023-07-29T06:24:22;99469.41;;;22.33
51149;BMP280;37210;50.058;8.688;2023-07-29T06:26:49;99487.56;;;22.26
51149;BMP280;37210;50.058;8.688;2023-07-29T06:29:16;99508.31;;;22.21
51149;BMP280;37210;50.058;8.688;2023-07-29T06:31:43;99515.06;;;22.27
51149;BMP280;37210;50.058;8.688;2023-07-29T06:34:12;99508.94;;;22.11
51149;BMP280;37210;50.058;8.688;2023-07-29T06:36:39;99480.41;;;22.13
51149;BMP280;37210;50.058;8.688;2023-07-29T06:39:07;99456.50;;;22.11
51149;BMP280;37210;50.058;8.688;2023-07-29T06:41:34;99474.59;;;21.91
51149;BMP280;37210;50.058;8.688;2023-07-29T06:44:03;99481.47;;;21.64
51149;BMP280;37210;50.058;8.688;2023-07-29T06:46:31;99478.56;;;21.68
51149;BMP280;37210;50.058;8.688;2023-07-29T06:48:59;99481.31;;;21.82
51149;BMP280;37210;50.058;8.688;2023-07-29T06:51:27;99477.00;;;21.80
51149;BMP280;37210;50.058;8.688;2023-07-29T06:53:58;99461.41;;;22.03
51149;BMP280;37210;50.058;8.688;2023-07-29T06:56:25;99469.81;;;22.11
51149;BMP280;37210;50.058;8.688;2023-07-29T06:58:53;99479.16;;;22.18
51149;BMP280;37210;50.058;8.688;2023-07-29T07:01:20;99479.34;;;22.15
51149;BMP280;37210;50.058;8.688;2023-07-29T07:03:47;99481.84;;;22.18
51149;BMP280;37210;50.058;8.688;2023-07-29T07:06:15;99467.50;;;22.05
51149;BMP280;37210;50.058;8.688;2023-07-29T07:08:44;99480.97;;;22.18
51149;BMP280;37210;50.058;8.688;2023-07-29T07:11:11;99487.03;;;22.06
51149;BMP280;37210;50.058;8.688;2023-07-29T07:13:38;99482.16;;;21.98
51149;BMP280;37210;50.058;8.688;2023-07-29T07:16:06;99476.59;;;22.17
51149;BMP280;37210;50.058;8.688;2023-07-29T07:18:33;99465.88;;;22.03
51149;BMP280;37210;50.058;8.688;2023-07-29T07:21:01;99462.78;;;22.10
51149;BMP280;37210;50.058;8.688;2023-07-29T07:23:28;99477.41;;;22.03
51149;BMP280;37210;50.058;8.688;2023-07-29T07:25:57;99495.13;;;22.04
51149;BMP280;37210;50.058;8.688;2023-07-29T07:28:24;99486.47;;;21.85
51149;BMP280;37210;50.058;8.688;2023-07-29T07:30:51;99469.00;;;21.95
51149;BMP280;37210;50.058;8.688;2023-07-29T07:33:19;99477.00;;;21.80
51149;BMP280;37210;50.058;8.688;2023-07-29T07:35:46;99490.66;;;22.05
51149;BMP280;37210;50.058;8.688;2023-07-29T07:38:13;99488.69;;;21.93
51149;BMP280;37210;50.058;8.688;2023-07-29T07:40:41;99497.50;;;22.09
51149;BMP280;37210;50.058;8.688;2023-07-29T07:43:09;99497.06;;;22.01
51149;BMP280;37210;50.058;8.688;2023-07-29T07:45:37;99497.28;;;21.82
51149;BMP280;37210;50.058;8.688;2023-07-29T07:48:04;99503.53;;;21.81
51149;BMP280;37210;50.058;8.688;2023-07-29T07:50:31;99495.81;;;21.92
51149;BMP280;37210;50.058;8.688;2023-07-29T07:52:59;99509.00;;;22.09
51149;BMP280;37210;50.058;8.688;2023-07-29T07:55:26;99521.16;;;22.29
51149;BMP280;37210;50.058;8.688;2023-07-29T07:57:53;99531.66;;;22.16
51149;BMP280;37210;50.058;8.688;2023-07-29T08:00:22;99539.38;;;21.91
51149;BMP280;37210;50.058;8.688;2023-07-29T08:02:49;99533.31;;;22.03
51149;BMP280;37210;50.058;8.688;2023-07-29T08:05:17;99519.50;;;21.97
51149;BMP280;37210;50.058;8.688;2023-07-29T08:07:45;99502.25;;;21.88
51149;BMP280;37210;50.058;8.688;2023-07-29T08:10:12;99523.44;;;22.05
51149;BMP280;37210;50.058;8.688;2023-07-29T08:12:39;99516.44;;;21.89
51149;BMP280;37210;50.058;8.688;2023-07-29T08:15:07;99514.88;;;22.00
51149;BMP280;37210;50.058;8.688;2023-07-29T08:17:36;99529.44;;;22.39
51149;BMP280;37210;50.058;8.688;2023-07-29T08:20:04;99510.75;;;22.54
51149;BMP280;37210;50.058;8.688;2023-07-29T08:22:32;99518.22;;;22.63
51149;BMP280;37210;50.058;8.688;2023-07-29T08:24:59;99524.63;;;23.03
51149;BMP280;37210;50.058;8.688;2023-07-29T08:27:27;99521.88;;;23.19
51149;BMP280;37210;50.058;8.688;2023-07-29T08:29:55;99508.44;;;22.78
51149;BMP280;37210;50.058;8.688;2023-07-29T08:32:22;99529.41;;;23.12
51149;BMP280;37210;50.058;8.688;2023-07-29T08:34:51;99531.31;;;22.96
51149;BMP280;37210;50.058;8.688;2023-07-29T08:37:18;99523.78;;;23.17
51149;BMP280;37210;50.058;8.688;2023-07-29T08:39:45;99504.06;;;23.33
51149;BMP280;37210;50.058;8.688;2023-07-29T08:42:13;99505.06;;;23.31
51149;BMP280;37210;50.058;8.688;2023-07-29T08:44:48;99499.94;;;23.42
51149;BMP280;37210;50.058;8.688;2023-07-29T08:47:17;99526.56;;;23.70
51149;BMP280;37210;50.058;8.688;2023-07-29T08:49:46;99481.16;;;23.43
51149;BMP280;37210;50.058;8.688;2023-07-29T08:52:16;99517.25;;;24.04
51149;BMP280;37210;50.058;8.688;2023-07-29T08:54:45;99521.28;;;24.23
51149;BMP280;37210;50.058;8.688;2023-07-29T08:57:13;99510.88;;;24.19
51149;BMP280;37210;50.058;8.688;2023-07-29T08:59:41;99506.22;;;24.35
51149;BMP280;37210;50.058;8.688;2023-07-29T09:02:09;99514.19;;;24.87
51149;BMP280;37210;50.058;8.688;2023-07-29T09:04:36;99497.81;;;25.16
51149;BMP280;37210;50.058;8.688;2023-07-29T09:07:05;99495.69;;;25.58
51149;BMP280;37210;50.058;8.688;2023-07-29T09:09:34;99493.75;;;25.60
51149;BMP280;37210;50.058;8.688;2023-07-29T09:12:02;99493.72;;;25.49
51149;BMP280;37210;50.058;8.688;2023-07-29T09:14:30;99474.72;;;25.52
51149;BMP280;37210;50.058;8.688;2023-07-29T09:16:57;99492.13;;;25.93
51149;BMP280;37210;50.058;8.688;2023-07-29T09:19:26;99491.56;;;25.77
51149;BMP280;37210;50.058;8.688;2023-07-29T09:21:53;99499.25;;;25.82
51149;BMP280;37210;50.058;8.688;2023-07-29T09:24:21;99498.53;;;25.44
51149;BMP280;37210;50.058;8.688;2023-07-29T09:26:50;99497.31;;;25.84
51149;BMP280;37210;50.058;8.688;2023-07-29T09:29:22;99493.00;;;25.94
51149;BMP280;37210;50.058;8.688;2023-07-29T09:31:50;99495.91;;;26.14
51149;BMP280;37210;50.058;8.688;2023-07-29T09:34:17;99480.69;;;26.15
51149;BMP280;37210;50.058;8.688;2023-07-29T09:36:45;99487.22;;;25.87
51149;BMP280;37210;50.058;8.688;2023-07-29T09:39:12;99487.66;;;25.58
51149;BMP280;37210;50.058;8.688;2023-07-29T09:41:40;99476.59;;;26.22
51149;BMP280;37210;50.058;8.688;2023-07-29T09:44:10;99482.38;;;26.16
51149;BMP280;37210;50.058;8.688;2023-07-29T09:46:38;99477.06;;;26.27
51149;BMP280;37210;50.058;8.688;2023-07-29T09:49:07;99491.97;;;25.84
51149;BMP280;37210;50.058;8.688;2023-07-29T09:51:37;99497.88;;;26.00
51149;BMP280;37210;50.058;8.688;2023-07-29T09:54:06;99501.75;;;25.96
51149;BMP280;37210;50.058;8.688;2023-07-29T09:56:40;99499.31;;;26.17
51149;BMP280;37210;50.058;8.688;2023-07-29T09:59:10;99497.16;;;25.98
51149;BMP280;37210;50.058;8.688;2023-07-29T10:01:38;99496.25;;;25.86
51149;BMP280;37210;50.058;8.688;2023-07-29T10:04:06;99500.56;;;26.00
51149;BMP280;37210;50.058;8.688;2023-07-29T10:06:36;99499.16;;;25.47
51149;BMP280;37210;50.058;8.688;2023-07-29T10:09:05;99481.34;;;26.06
51149;BMP280;37210;50.058;8.688;2023-07-29T10:11:34;99464.03;;;25.99
51149;BMP280;37210;50.058;8.688;2023-07-29T10:14:02;99470.50;;;26.20
51149;BMP280;37210;50.058;8.688;2023-07-29T10:16:31;99471.13;;;26.91
51149;BMP280;37210;50.058;8.688;2023-07-29T10:18:59;99464.53;;;27.07
51149;BMP280;37210;50.058;8.688;2023-07-29T10:21:29;99464.59;;;26.61
51149;BMP280;37210;50.058;8.688;2023-07-29T10:24:01;99456.41;;;26.62
51149;BMP280;37210;50.058;8.688;2023-07-29T10:26:33;99472.22;;;26.89
51149;BMP280;37210;50.058;8.688;2023-07-29T10:29:04;99463.75;;;26.71
51149;BMP280;37210;50.058;8.688;2023-07-29T10:31:37;99459.38;;;26.59
51149;BMP280;37210;50.058;8.688;2023-07-29T10:34:07;99460.94;;;26.51
51149;BMP280;37210;50.058;8.688;2023-07-29T10:36:36;99461.47;;;26.89
51149;BMP280;37210;50.058;8.688;2023-07-29T10:39:06;99454.66;;;26.96
51149;BMP280;37210;50.058;8.688;2023-07-29T10:41:55;99461.00;;;27.28
51149;BMP280;37210;50.058;8.688;2023-07-29T10:44:47;99461.63;;;27.43
51149;BMP280;37210;50.058;8.688;2023-07-29T10:47:19;99451.34;;;27.48
51149;BMP280;37210;50.058;8.688;2023-07-29T10:49:50;99459.56;;;27.78
51149;BMP280;37210;50.058;8.688;2023-07-29T10:52:29;99445.69;;;27.94
51149;BMP280;37210;50.058;8.688;2023-07-29T10:54:58;99444.00;;;27.93
51149;BMP280;37210;50.058;8.688;2023-07-29T10:57:32;99439.53;;;28.14
51149;BMP280;37210;50.058;8.688;2023-07-29T11:00:02;99442.03;;;28.06
51149;BMP280;37210;50.058;8.688;2023-07-29T11:02:34;99447.78;;;27.58
51149;BMP280;37210;50.058;8.688;2023-07-29T11:05:05;99448.66;;;27.48
51149;BMP280;37210;50.058;8.688;2023-07-29T11:07:43;99456.59;;;27.49
51149;BMP280;37210;50.058;8.688;2023-07-29T11:10:11;99444.28;;;27.14
51149;BMP280;37210;50.058;8.688;2023-07-29T11:12:44;99455.88;;;27.25
51149;BMP280;37210;50.058;8.688;2023-07-29T11:15:15;99461.09;;;26.71
51149;BMP280;37210;50.058;8.688;2023-07-29T11:17:51;99449.09;;;26.64
51149;BMP280;37210;50.058;8.688;2023-07-29T11:20:21;99457.16;;;26.64
51149;BMP280;37210;50.058;8.688;2023-07-29T11:22:53;99445.78;;;26.50
51149;BMP280;37210;50.058;8.688;2023-07-29T11:25:21;99449.31;;;26.28
51149;BMP280;37210;50.058;8.688;2023-07-29T11:27:52;99449.09;;;26.42
51149;BMP280;37210;50.058;8.688;2023-07-29T11:30:20;99438.50;;;26.41
51149;BMP280;37210;50.058;8.688;2023-07-29T11:32:50;99447.84;;;26.35
51149;BMP280;37210;50.058;8.688;2023-07-29T11:35:18;99439.22;;;26.08
51149;BMP280;37210;50.058;8.688;2023-07-29T11:37:47;99444.91;;;26.27
51149;BMP280;37210;50.058;8.688;2023-07-29T11:40:16;99440.91;;;26.44
51149;BMP280;37210;50.058;8.688;2023-07-29T11:42:45;99418.56;;;25.86
51149;BMP280;37210;50.058;8.688;2023-07-29T11:45:14;99423.56;;;26.26
51149;BMP280;37210;50.058;8.688;2023-07-29T11:47:43;99446.06;;;26.69
51149;BMP280;37210;50.058;8.688;2023-07-29T11:50:17;99427.66;;;26.53
51149;BMP280;37210;50.058;8.688;2023-07-29T11:52:46;99434.41;;;26.81
51149;BMP280;37210;50.058;8.688;2023-07-29T11:55:14;99443.06;;;27.07
51149;BMP280;37210;50.058;8.688;2023-07-29T11:57:43;99429.00;;;27.25
51149;BMP280;37210;50.058;8.688;2023-07-29T12:00:11;99417.53;;;27.12
51149;BMP280;37210;50.058;8.688;2023-07-29T12:02:43;99417.09;;;27.07
51149;BMP280;37210;50.058;8.688;2023-07-29T12:05:14;99411.72;;;26.96
51149;BMP280;37210;50.058;8.688;2023-07-29T12:07:43;99416.19;;;27.29
51149;BMP280;37210;50.058;8.688;2023-07-29T12:10:11;99418.44;;;27.35
51149;BMP280;37210;50.058;8.688;2023-07-29T12:12:44;99417.19;;;27.17
51149;BMP280;37210;50.058;8.688;2023-07-29T12:15:12;99380.88;;;26.90
51149;BMP280;37210;50.058;8.688;2023-07-29T12:17:40;99410.34;;;27.13
51149;BMP280;37210;50.058;8.688;2023-07-29T12:20:09;99403.75;;;27.28
51149;BMP280;37210;50.058;8.688;2023-07-29T12:22:39;99409.13;;;27.39
51149;BMP280;37210;50.058;8.688;2023-07-29T12:25:07;99404.59;;;27.39
51149;BMP280;37210;50.058;8.688;2023-07-29T12:27:37;99385.97;;;27.05
51149;BMP280;37210;50.058;8.688;2023-07-29T12:30:22;99394.81;;;27.49
51149;BMP280;37210;50.058;8.688;2023-07-29T12:32:50;99377.16;;;27.36
51149;BMP280;37210;50.058;8.688;2023-07-29T12:35:18;99390.72;;;27.66
51149;BMP280;37210;50.058;8.688;2023-07-29T12:37:47;99379.50;;;27.61
51149;BMP280;37210;50.058;8.688;2023-07-29T12:40:25;99390.63;;;27.88
51149;BMP280;37210;50.058;8.688;2023-07-29T12:42:53;99384.56;;;27.75
51149;BMP280;37210;50.058;8.688;2023-07-29T12:45:21;99382.94;;;27.52
51149;BMP280;37210;50.058;8.688;2023-07-29T12:47:52;99378.41;;;27.63
51149;BMP280;37210;50.058;8.688;2023-07-29T12:50:20;99375.66;;;27.75
51149;BMP280;37210;50.058;8.688;2023-07-29T12:52:49;99382.50;;;27.79
51149;BMP280;37210;50.058;8.688;2023-07-29T12:55:16;99371.22;;;27.85
51149;BMP280;37210;50.058;8.688;2023-07-29T12:57:44;99375.53;;;27.76
51149;BMP280;37210;50.058;8.688;2023-07-29T13:00:12;99381.47;;;27.59
51149;BMP280;37210;50.058;8.688;2023-07-29T13:02:39;99387.69;;;27.91
51149;BMP280;37210;50.058;8.688;2023-07-29T13:05:09;99385.25;;;27.88
51149;BMP280;37210;50.058;8.688;2023-07-29T13:07:38;99377.38;;;28.07
51149;BMP280;37210;50.058;8.688;2023-07-29T13:10:10;99376.00;;;27.81
51149;BMP280;37210;50.058;8.688;2023-07-29T13:12:37;99384.28;;;27.57
51149;BMP280;37210;50.058;8.688;2023-07-29T13:15:06;99365.50;;;27.57
51149;BMP280;37210;50.058;8.688;2023-07-29T13:17:34;99386.22;;;27.87
51149;BMP280;37210;50.058;8.688;2023-07-29T13:20:01;99395.25;;;27.65
51149;BMP280;37210;50.058;8.688;2023-07-29T13:22:29;99389.31;;;27.51
51149;BMP280;37210;50.058;8.688;2023-07-29T13:24:56;99386.78;;;27.27
51149;BMP280;37210;50.058;8.688;2023-07-29T13:27:25;99387.44;;;27.62
51149;BMP280;37210;50.058;8.688;2023-07-29T13:29:53;99383.72;;;27.75
51149;BMP280;37210;50.058;8.688;2023-07-29T13:32:20;99377.38;;;27.44
51149;BMP280;37210;50.058;8.688;2023-07-29T13:34:48;99380.81;;;27.66
51149;BMP280;37210;50.058;8.688;2023-07-29T13:37:15;99375.09;;;27.60
51149;BMP280;37210;50.058;8.688;2023-07-29T13:39:42;99377.41;;;27.22
51149;BMP280;37210;50.058;8.688;2023-07-29T13:42:10;99362.16;;;27.11
51149;BMP280;37210;50.058;8.688;2023-07-29T13:44:38;99383.00;;;27.73
51149;BMP280;37210;50.058;8.688;2023-07-29T13:47:06;99379.88;;;27.56
51149;BMP280;37210;50.058;8.688;2023-07-29T13:49:33;99386.34;;;27.54
51149;BMP280;37210;50.058;8.688;2023-07-29T13:52:00;99371.91;;;27.34
51149;BMP280;37210;50.058;8.688;2023-07-29T13:54:28;99384.19;;;27.48
51149;BMP280;37210;50.058;8.688;2023-07-29T13:56:55;99373.94;;;27.42
51149;BMP280;37210;50.058;8.688;2023-07-29T13:59:22;99392.34;;;27.57
51149;BMP280;37210;50.058;8.688;2023-07-29T14:01:51;99401.09;;;27.39
51149;BMP280;37210;50.058;8.688;2023-07-29T14:04:19;99380.59;;;27.58
51149;BMP280;37210;50.058;8.688;2023-07-29T14:06:46;99410.09;;;27.38
51149;BMP280;37210;50.058;8.688;2023-07-29T14:09:13;99397.66;;;27.26
51149;BMP280;37210;50.058;8.688;2023-07-29T14:11:41;99409.88;;;27.41
51149;BMP280;37210;50.058;8.688;2023-07-29T14:14:09;99399.69;;;27.55
51149;BMP280;37210;50.058;8.688;2023-07-29T14:16:36;99396.94;;;27.66
51149;BMP280;37210;50.058;8.688;2023-07-29T14:19:05;99402.78;;;27.72